x

Port Stanley (45132) Wave Buoy

8:00am - Wed 17th Sep 2014 All times are CDT. -5 hours from GMT.

  • Sig Wave height 0.3ft
  • Peak Period 2s
  • Wind
    2mph, 4mph gusts
  • Sea Temp 68°f
  • Air Temp 61°f
  • Sea Pressure 1017.2mb
  • Port Stanley
  • Port Stanley

More Historic Weather Station data

Upgrade to MSW Pro to gain access to the past 30 days of data for over 8000 Wavebouys and Weather Stations around the globe.

Join Pro

Comparision Forecast

View Surf forecast
   
Wed 09/17 8:00am 0.3ft 2s 2 4 mph 1017.2mb 68f 61f
7:00am 0.3ft 2s 4 7 mph 1017.4mb 67f 60f
6:00am 0.3ft 2s 2 7 mph 1017.2mb 67f 61f
5:00am 0.7ft 2s 4 7 mph 1017.1mb 67f 61f
4:00am 0.7ft 2s 9 11 mph 1017.2mb 67f 61f
3:00am 0.3ft 3s 11 13 mph 1017.2mb 67f 61f
2:00am 0.7ft 3s 9 11 mph 1017.3mb 67f 62f
1:00am 0.7ft 3s 7 9 mph 1017.6mb 67f 62f
12:00am 0.7ft 3s 9
mph
1017.6mb 67f 62f
Tue 09/16 11:00pm 1ft 3s 9 11 mph 1017.9mb 67f 62f
10:00pm 1ft 3s 9 13 mph 1018mb 68f 62f
9:00pm 1.3ft 3s 11 13 mph 1018.1mb 68f 63f
8:00pm 1.3ft 3s 11 13 mph 1018.1mb 68f 63f
7:00pm 1.3ft 3s 13 18 mph 1018mb 68f 62f
6:00pm 1ft 3s 11 16 mph 1018mb 68f 62f
5:00pm 0.7ft 2s 11 16 mph 1018.2mb 69f 62f
4:00pm 0.3ft 2s 11 13 mph 1018.4mb 69f 62f
3:00pm 0.3ft 3s 9 13 mph 1018.5mb 69f 61f
2:00pm 0.3ft 3s 7 11 mph 1018.9mb 69f 61f
1:00pm 0.3ft 2s 4 9 mph 1019.4mb 69f 61f
12:00pm 0.3ft 2s 2 4 mph 1019.8mb 69f 61f
11:00am 0.7ft 2s 4 9 mph 1020.1mb 68f 59f
10:00am 0.7ft 2s 9 16 mph 1020.2mb 68f 59f
9:00am 0.7ft 2s 9 11 mph 1020.5mb 68f 58f
8:00am 0.7ft 2s 11 13 mph 1020.3mb 68f 58f
7:00am 0.7ft 2s 11 16 mph 1020mb 67f 58f
6:00am 0.7ft 3s 11 18 mph 1019.3mb 67f 59f
5:00am 1ft 3s 11 13 mph 1018.7mb 67f 58f
4:00am 1ft 3s 11 16 mph 1018.4mb 67f 59f
3:00am 1ft 4s 11 13 mph 1018.2mb 67f 58f
2:00am 1ft 4s 9 13 mph 1017.9mb 67f 58f
1:00am 1ft 4s 11 13 mph 1017.7mb 67f 58f
12:00am 1ft 4s 11 16 mph 1017.8mb 67f 59f
Mon 09/15 11:00pm 1ft 4s 4 9 mph 1017.7mb 67f 58f
10:00pm 1.3ft 4s 7 9 mph 1018.1mb 67f 58f
9:00pm 1.3ft 4s 9 13 mph 1018.4mb 68f 58f
8:00pm 1.3ft 4s 11 16 mph 1017.9mb 68f 62f
7:00pm 1.3ft 4s 9 11 mph 1018mb 68f 62f
6:00pm 1.3ft 4s 9 13 mph 1017.8mb 68f 62f
5:00pm 1.6ft 4s 9 13 mph 1018.1mb 68f 62f
4:00pm 1.6ft 4s 9 13 mph 1019mb 68f 61f
3:00pm 2ft 4s 13 16 mph 1018.8mb 68f 62f
2:00pm 2.5ft 4s 16 18 mph 1019.1mb 68f 64f
1:00pm 2ft 4s 18 20 mph 1019.5mb 68f 64f
12:00pm 2ft 4s 13 16 mph 1020.2mb 68f 63f
11:00am 2ft 4s 16 18 mph 1020.9mb 68f 63f
10:00am 1.3ft 3s 16 22 mph 1021.3mb 68f 63f
9:00am 0.7ft 3s 13 20 mph 1021.9mb 68f 63f
8:00am 0.3ft 2s 9 13 mph 1021.8mb 68f 63f
7:00am 0.3ft 3s 9 13 mph 1022.4mb 68f 62f
6:00am 0.3ft 3s 7 13 mph 1022.7mb 68f 62f
5:00am 0.3ft 3s 7 9 mph 1022.8mb 68f 62f
4:00am 0.3ft 3s 7 9 mph 1022.6mb 68f 61f
3:00am 0.3ft 3s 4 7 mph 1022.7mb 68f 61f
2:00am 0.3ft 2s 4 7 mph 1023mb 68f 61f
1:00am 0.3ft 2s 2 4 mph 1023.1mb 68f 60f
12:00am 0.7ft 2s 4 7 mph 1023.1mb 68f 60f
Sun 09/14 11:00pm 0.3ft 4s 9 13 mph 1023.1mb 68f 60f
10:00pm 0.3ft 3s 7 9 mph 1023.3mb 68f 60f
9:00pm 0.3ft 3s 4 7 mph 1023.4mb 68f 60f
8:00pm 0.3ft 3s 4 9 mph 1023.5mb 68f 60f
7:00pm 0.3ft 3s 4 7 mph 1023.5mb 68f 59f
6:00pm 0.3ft 3s 4 9 mph 1023.5mb 69f 59f
5:00pm 0.3ft 4s 9 11 mph 1023.6mb 69f 59f
4:00pm 0.3ft 4s 7 9 mph 1023.9mb 69f 58f
3:00pm 0.3ft 4s 4 9 mph 1024.6mb 69f 58f
2:00pm 0.3ft 2s 4 7 mph 1025.3mb 69f 58f
1:00pm 0.3ft 2s 4 7 mph 1026mb 69f 57f
12:00pm 0.3ft 2s 2 4 mph 1026.5mb 69f 58f
11:00am 0.3ft 2s 2 7 mph 1027mb 69f 57f
10:00am 0.3ft 2s 2 7 mph 1027.3mb 69f 57f
9:00am 0.3ft 2s 9 11 mph 1027.7mb 68f 56f
8:00am 0.3ft 2s 9 13 mph 1027.8mb 68f 56f
7:00am 0.7ft 2s 7 11 mph 1027.9mb 68f 55f
6:00am 0.7ft 2s 7 11 mph 1027.6mb 67f 55f
5:00am 0.7ft 2s 9 11 mph 1027.2mb 67f 55f
4:00am 0.7ft 2s 9 11 mph 1027.1mb 67f 55f
3:00am 0.7ft 3s 9 13 mph 1027.1mb 67f 55f
2:00am 0.7ft 3s 7 11 mph 1027.2mb 67f 55f
1:00am 1ft 4s 7 9 mph 1027.3mb 68f 55f
12:00am 1ft 4s 9 11 mph 1027.3mb 68f 55f
Sat 09/13 11:00pm 1.3ft 3s 9 13 mph 1027mb 68f 55f
10:00pm 1.3ft 4s 11 16 mph 1026.9mb 68f 56f
9:00pm 1.6ft 4s 11 18 mph 1026.5mb 68f 56f
8:00pm 2ft 4s 13 18 mph 1026mb 68f 56f
7:00pm 2.5ft 5s 16 20 mph 1025.2mb 68f 57f
6:00pm 2.5ft 4s 18 22 mph 1024.8mb 68f 57f
5:00pm 3ft 5s 18 25 mph 1024.6mb 69f 58f
4:00pm 3.5ft 4s 18 22 mph 1023.9mb 69f 58f
3:00pm  -   -  22
mph
- - -